Time;durP1;ratioP1;P1;durP2;ratioP2;P2;SDS_P1;SDS_P2;PMS_P1;PMS_P2;Temp;Humidity;BMP_temperature;BMP_pressure;BME280_temperature;BME280_humidity;BME280_pressure;Samples;Min_cycle;Max_cycle;Signal;HPM_P1;HPM_P2
2023/12/20 00:02:20;;;;;;;;;;;;;;;;;;5040900;28;5187;-61
2023/12/20 00:04:46;;;;;;;;;;;;;;;;;;5043940;28;4769;-61
2023/12/20 00:07:11;;;;;;;;;;;;;;;;;;5045828;28;3458;-62
2023/12/20 00:09:36;;;;;;;;;;;;;;;;;;5040912;28;5180;-62
2023/12/20 00:12:02;;;;;;;;;;;;;;;;;;5043293;28;5158;-62
2023/12/20 00:14:27;;;;;;;;;;;;;;;;;;5041369;28;5080;-62
2023/12/20 00:16:53;;;;;;;;;;;;;;;;;;5044489;28;5428;-62
2023/12/20 00:19:18;;;;;;;;;;;;;;;;;;5047380;28;3555;-61
2023/12/20 00:21:43;;;;;;;;;;;;;;;;;;5046884;28;4845;-62
2023/12/20 00:24:08;;;;;;;;;;;;;;;;;;5044671;28;4992;-62
2023/12/20 00:26:34;;;;;;;;;;;;;;;;;;5042167;28;5530;-61
2023/12/20 00:28:59;;;;;;;;;;;;;;;;;;5042592;28;5070;-61
2023/12/20 00:31:24;;;;;;;;;;;;;;;;;;5042388;28;5126;-61
2023/12/20 00:33:50;;;;;;;;;;;;;;;;;;5041649;28;5058;-61
2023/12/20 00:36:15;;;;;;;;;;;;;;;;;;5041029;28;5433;-62
2023/12/20 00:38:40;;;;;;;;;;;;;;;;;;5039538;28;5152;-61
2023/12/20 00:41:05;;;;;;;;;;;;;;;;;;5039331;28;4565;-61
2023/12/20 00:43:31;;;;;;;;;;;;;;;;;;5042623;28;5165;-61
2023/12/20 00:45:57;;;;;;;;;;;;;;;;;;5040500;28;3547;-61
2023/12/20 00:48:22;;;;;;;;;;;;;;;;;;5044606;28;4942;-61
2023/12/20 00:50:47;;;;;;;;;;;;;;;;;;5043206;28;5010;-61
2023/12/20 00:53:12;;;;;;;;;;;;;;;;;;5037957;28;5189;-62
2023/12/20 00:55:38;;;;;;;;;;;;;;;;;;5039619;28;5076;-62
2023/12/20 00:58:03;;;;;;;;;;;;;;;;;;5042410;28;3629;-61
2023/12/20 01:00:28;;;;;;;;;;;;;;;;;;5036948;28;5446;-62
2023/12/20 01:02:54;;;;;;;;;;;;;;;;;;5042842;28;5143;-62
2023/12/20 01:05:19;;;;;;;;;;;;;;;;;;5038333;28;5231;-63
2023/12/20 01:07:44;;;;;;;;;;;;;;;;;;5041975;28;5060;-62
2023/12/20 01:10:10;;;;;;;;;;;;;;;;;;5037935;28;3440;-61
2023/12/20 01:12:35;;;;;;;;;;;;;;;;;;5040726;28;5108;-61
2023/12/20 01:15:01;;;;;;;;;;;;;;;;;;5038167;28;5141;-62
2023/12/20 01:17:26;;;;;;;;;;;;;;;;;;5043890;28;5150;-61
2023/12/20 01:19:51;;;;;;;;;;;;;;;;;;5040703;28;5292;-61
2023/12/20 01:22:17;;;;;;;;;;;;;;;;;;5045934;28;3495;-61
2023/12/20 01:24:42;;;;;;;;;;;;;;;;;;5037981;28;4465;-61
2023/12/20 01:27:07;;;;;;;;;;;;;;;;;;5036587;28;5409;-61
2023/12/20 01:29:33;;;;;;;;;;;;;;;;;;5043144;28;5457;-61
2023/12/20 01:31:58;;;;;;;;;;;;;;;;;;5043397;28;5132;-61
2023/12/20 01:34:23;;;;;;;;;;;;;;;;;;5045502;28;5170;-61
2023/12/20 01:36:48;;;;;;;;;;;;;;;;;;5037754;28;3607;-61
2023/12/20 01:39:14;;;;;;;;;;;;;;;;;;5043956;28;4739;-61
2023/12/20 01:41:39;;;;;;;;;;;;;;;;;;5045021;28;5455;-61
2023/12/20 01:44:04;;;;;;;;;;;;;;;;;;5042319;28;5145;-61
2023/12/20 01:46:30;;;;;;;;;;;;;;;;;;5040731;28;5006;-61
2023/12/20 01:48:55;;;;;;;;;;;;;;;;;;5040887;28;3524;-61
2023/12/20 01:51:20;;;;;;;;;;;;;;;;;;5042006;28;4836;-61
2023/12/20 01:53:46;;;;;;;;;;;;;;;;;;5044231;28;4481;-62
2023/12/20 01:56:11;;;;;;;;;;;;;;;;;;5042173;28;5154;-61
2023/12/20 01:58:42;;;;;;;;;;;;;;;;;;5042153;28;5130;-61
2023/12/20 02:01:07;;;;;;;;;;;;;;;;;;5039388;28;3547;-61
2023/12/20 02:03:34;;;;;;;;;;;;;;;;;;5043691;28;5131;-60
2023/12/20 02:05:59;;;;;;;;;;;;;;;;;;5040840;28;5143;-61
2023/12/20 02:08:25;;;;;;;;;;;;;;;;;;5037068;28;4761;-62
2023/12/20 02:10:50;;;;;;;;;;;;;;;;;;5047250;28;4528;-62
2023/12/20 02:13:15;;;;;;;;;;;;;;;;;;5048964;28;4091;-62
2023/12/20 02:15:43;;;;;;;;;;;;;;;;;;5047434;28;5011;-61
2023/12/20 02:18:08;;;;;;;;;;;;;;;;;;5042770;28;4480;-62
2023/12/20 02:20:34;;;;;;;;;;;;;;;;;;5047189;28;5084;-62
2023/12/20 02:22:59;;;;;;;;;;;;;;;;;;5044737;28;5066;-62
2023/12/20 02:25:24;;;;;;;;;;;;;;;;;;5050041;28;5195;-61
2023/12/20 02:27:50;;;;;;;;;;;;;;;;;;5035977;28;3567;-61
2023/12/20 02:30:15;;;;;;;;;;;;;;;;;;5044763;28;4512;-61
2023/12/20 02:32:40;;;;;;;;;;;;;;;;;;5046677;28;5040;-61
2023/12/20 02:35:06;;;;;;;;;;;;;;;;;;5046554;28;5128;-61
2023/12/20 02:37:32;;;;;;;;;;;;;;;;;;5042296;28;4521;-61
2023/12/20 02:39:57;;;;;;;;;;;;;;;;;;5046665;28;3407;-61
2023/12/20 02:42:23;;;;;;;;;;;;;;;;;;5049187;28;5311;-62
2023/12/20 02:44:48;;;;;;;;;;;;;;;;;;5049018;28;4994;-62
2023/12/20 02:47:13;;;;;;;;;;;;;;;;;;5044647;28;4985;-62
2023/12/20 02:49:38;;;;;;;;;;;;;;;;;;5043897;28;4985;-61
2023/12/20 02:52:04;;;;;;;;;;;;;;;;;;5044526;28;3962;-62
2023/12/20 02:54:29;;;;;;;;;;;;;;;;;;5046531;28;5377;-62
2023/12/20 02:56:55;;;;;;;;;;;;;;;;;;5041481;28;4977;-62
2023/12/20 02:59:20;;;;;;;;;;;;;;;;;;5039835;28;5066;-62
2023/12/20 03:01:45;;;;;;;;;;;;;;;;;;5041181;28;5042;-62
2023/12/20 03:04:11;;;;;;;;;;;;;;;;;;5047889;28;3718;-62
2023/12/20 03:06:36;;;;;;;;;;;;;;;;;;5042738;28;4536;-62
2023/12/20 03:09:01;;;;;;;;;;;;;;;;;;5042926;28;5167;-61
2023/12/20 03:11:27;;;;;;;;;;;;;;;;;;5040551;28;4946;-61
2023/12/20 03:13:53;;;;;;;;;;;;;;;;;;5042268;28;5173;-61
2023/12/20 03:16:18;;;;;;;;;;;;;;;;;;5042857;28;3609;-63
2023/12/20 03:18:43;;;;;;;;;;;;;;;;;;5041720;28;4609;-61
2023/12/20 03:21:09;;;;;;;;;;;;;;;;;;5039564;28;5098;-62
2023/12/20 03:23:34;;;;;;;;;;;;;;;;;;5040108;28;5185;-62
2023/12/20 03:25:59;;;;;;;;;;;;;;;;;;5044785;28;5186;-63
2023/12/20 03:28:25;;;;;;;;;;;;;;;;;;5038439;28;5135;-62
2023/12/20 03:30:51;;;;;;;;;;;;;;;;;;5038859;28;3642;-62
2023/12/20 03:33:16;;;;;;;;;;;;;;;;;;5048440;28;5028;-62
2023/12/20 03:35:41;;;;;;;;;;;;;;;;;;5045101;28;5258;-62
2023/12/20 03:38:07;;;;;;;;;;;;;;;;;;5043415;28;4574;-62
2023/12/20 03:40:32;;;;;;;;;;;;;;;;;;5041986;28;5066;-62
2023/12/20 03:42:57;;;;;;;;;;;;;;;;;;5049378;28;1118;-62
2023/12/20 03:45:22;;;;;;;;;;;;;;;;;;5038463;28;5105;-62
2023/12/20 03:47:48;;;;;;;;;;;;;;;;;;5042259;28;5323;-62
2023/12/20 03:50:13;;;;;;;;;;;;;;;;;;5042740;28;5079;-62
2023/12/20 03:52:39;;;;;;;;;;;;;;;;;;5047320;28;5124;-62
2023/12/20 03:55:04;;;;;;;;;;;;;;;;;;5048575;28;1197;-62
2023/12/20 03:57:30;;;;;;;;;;;;;;;;;;5043775;28;5835;-62
2023/12/20 03:59:55;;;;;;;;;;;;;;;;;;5046283;28;5137;-62
2023/12/20 04:02:20;;;;;;;;;;;;;;;;;;5040128;28;4539;-62
2023/12/20 04:04:46;;;;;;;;;;;;;;;;;;5043172;28;4998;-62
2023/12/20 04:07:11;;;;;;;;;;;;;;;;;;5044861;28;3474;-62
2023/12/20 04:09:36;;;;;;;;;;;;;;;;;;5045792;28;4639;-62
2023/12/20 04:12:02;;;;;;;;;;;;;;;;;;5045793;28;4562;-62
2023/12/20 04:14:27;;;;;;;;;;;;;;;;;;5046493;28;5056;-62
2023/12/20 04:16:52;;;;;;;;;;;;;;;;;;5046935;28;5053;-62
2023/12/20 04:19:17;;;;;;;;;;;;;;;;;;5042590;28;3523;-62
2023/12/20 04:21:43;;;;;;;;;;;;;;;;;;5046927;28;4476;-62
2023/12/20 04:24:08;;;;;;;;;;;;;;;;;;5042926;28;4700;-62
2023/12/20 04:26:33;;;;;;;;;;;;;;;;;;5039035;28;5290;-62
2023/12/20 04:28:59;;;;;;;;;;;;;;;;;;5044749;28;5218;-62
2023/12/20 04:31:24;;;;;;;;;;;;;;;;;;5047594;28;4497;-60
2023/12/20 04:33:49;;;;;;;;;;;;;;;;;;5046450;28;5206;-61
2023/12/20 04:36:15;;;;;;;;;;;;;;;;;;5042300;28;4632;-61
2023/12/20 04:38:40;;;;;;;;;;;;;;;;;;5045478;28;5103;-61
2023/12/20 04:41:05;;;;;;;;;;;;;;;;;;5045863;28;4498;-61
2023/12/20 04:43:30;;;;;;;;;;;;;;;;;;5046369;28;5241;-61
2023/12/20 04:45:56;;;;;;;;;;;;;;;;;;5038090;28;3543;-61
2023/12/20 04:48:21;;;;;;;;;;;;;;;;;;5046293;28;4789;-61
2023/12/20 04:50:46;;;;;;;;;;;;;;;;;;5046210;28;4559;-61
2023/12/20 04:53:12;;;;;;;;;;;;;;;;;;5044547;28;5059;-62
2023/12/20 04:55:37;;;;;;;;;;;;;;;;;;5037644;28;4514;-61
2023/12/20 04:58:02;;;;;;;;;;;;;;;;;;5041493;28;3474;-61
2023/12/20 05:00:28;;;;;;;;;;;;;;;;;;5045845;28;4481;-61
2023/12/20 05:02:53;;;;;;;;;;;;;;;;;;5045380;28;5107;-61
2023/12/20 05:05:19;;;;;;;;;;;;;;;;;;5046220;28;5122;-62
2023/12/20 05:07:44;;;;;;;;;;;;;;;;;;5040746;28;5282;-61
2023/12/20 05:10:09;;;;;;;;;;;;;;;;;;5046203;28;1119;-62
2023/12/20 05:12:35;;;;;;;;;;;;;;;;;;5043223;28;5360;-61
2023/12/20 05:15:00;;;;;;;;;;;;;;;;;;5042502;28;4573;-60
2023/12/20 05:17:25;;;;;;;;;;;;;;;;;;5041808;28;5070;-61
2023/12/20 05:19:51;;;;;;;;;;;;;;;;;;5043393;28;5107;-61
2023/12/20 05:22:17;;;;;;;;;;;;;;;;;;5043228;28;2981;-61
2023/12/20 05:24:42;;;;;;;;;;;;;;;;;;5041124;28;5072;-61
2023/12/20 05:27:07;;;;;;;;;;;;;;;;;;5041266;28;5324;-61
2023/12/20 05:29:33;;;;;;;;;;;;;;;;;;5044532;28;5046;-61
2023/12/20 05:31:58;;;;;;;;;;;;;;;;;;5037131;28;5403;-61
2023/12/20 05:34:24;;;;;;;;;;;;;;;;;;5044255;28;5259;-61
2023/12/20 05:36:49;;;;;;;;;;;;;;;;;;5040418;28;3625;-61
2023/12/20 05:39:14;;;;;;;;;;;;;;;;;;5037806;28;5045;-61
2023/12/20 05:41:39;;;;;;;;;;;;;;;;;;5044689;28;4695;-62
2023/12/20 05:44:05;;;;;;;;;;;;;;;;;;5043571;28;5103;-61
2023/12/20 05:46:30;;;;;;;;;;;;;;;;;;5048165;28;5105;-62
2023/12/20 05:48:55;;;;;;;;;;;;;;;;;;5048289;28;3677;-61
2023/12/20 05:51:21;;;;;;;;;;;;;;;;;;5043202;28;5022;-61
2023/12/20 05:53:46;;;;;;;;;;;;;;;;;;5042407;28;5140;-61
2023/12/20 05:56:11;;;;;;;;;;;;;;;;;;5040620;28;4774;-61
2023/12/20 05:58:38;;;;;;;;;;;;;;;;;;5041651;28;5289;-61
2023/12/20 06:01:04;;;;;;;;;;;;;;;;;;5040954;28;3621;-61
2023/12/20 06:03:29;;;;;;;;;;;;;;;;;;5043691;28;5106;-61
2023/12/20 06:05:54;;;;;;;;;;;;;;;;;;5041697;28;5113;-61
2023/12/20 06:08:19;;;;;;;;;;;;;;;;;;5043620;28;5097;-62
2023/12/20 06:10:45;;;;;;;;;;;;;;;;;;5043644;28;4976;-68
2023/12/20 06:13:11;;;;;;;;;;;;;;;;;;5039371;28;3901;-61
2023/12/20 06:15:37;;;;;;;;;;;;;;;;;;5039437;28;5142;-62
2023/12/20 06:18:02;;;;;;;;;;;;;;;;;;5042522;28;4954;-62
2023/12/20 06:20:28;;;;;;;;;;;;;;;;;;5042466;28;5037;-62
2023/12/20 06:22:53;;;;;;;;;;;;;;;;;;5043575;28;5135;-61
2023/12/20 06:25:19;;;;;;;;;;;;;;;;;;5045990;28;3411;-62
2023/12/20 06:27:44;;;;;;;;;;;;;;;;;;5045608;28;4717;-61
2023/12/20 06:30:09;;;;;;;;;;;;;;;;;;5036939;28;4504;-61
2023/12/20 06:32:35;;;;;;;;;;;;;;;;;;5040293;28;5186;-62
2023/12/20 06:35:00;;;;;;;;;;;;;;;;;;5044008;28;5079;-62
2023/12/20 06:37:26;;;;;;;;;;;;;;;;;;5046945;28;4676;-62
2023/12/20 06:39:51;;;;;;;;;;;;;;;;;;5044265;28;3742;-62
2023/12/20 06:42:17;;;;;;;;;;;;;;;;;;5046551;28;5100;-62
2023/12/20 06:44:42;;;;;;;;;;;;;;;;;;5045460;28;5103;-62
2023/12/20 06:47:07;;;;;;;;;;;;;;;;;;5046862;28;4991;-61
2023/12/20 06:49:33;;;;;;;;;;;;;;;;;;5046988;28;5045;-62
2023/12/20 06:51:58;;;;;;;;;;;;;;;;;;5039964;28;3484;-62
2023/12/20 06:54:23;;;;;;;;;;;;;;;;;;5045063;28;5130;-62
2023/12/20 06:56:49;;;;;;;;;;;;;;;;;;5042660;28;4855;-62
2023/12/20 06:59:14;;;;;;;;;;;;;;;;;;5036908;28;4883;-61
2023/12/20 07:01:39;;;;;;;;;;;;;;;;;;5039779;28;5212;-61
2023/12/20 07:04:05;;;;;;;;;;;;;;;;;;5037621;28;3618;-62
2023/12/20 07:06:30;;;;;;;;;;;;;;;;;;5042629;28;4998;-61
2023/12/20 07:08:55;;;;;;;;;;;;;;;;;;5045865;28;5057;-62
2023/12/20 07:11:21;;;;;;;;;;;;;;;;;;5049455;28;4475;-62
2023/12/20 07:13:46;;;;;;;;;;;;;;;;;;5047655;28;5009;-62
2023/12/20 07:16:11;;;;;;;;;;;;;;;;;;5042123;28;3398;-62
2023/12/20 07:18:37;;;;;;;;;;;;;;;;;;5044804;28;5052;-60
2023/12/20 07:21:02;;;;;;;;;;;;;;;;;;5043488;28;5100;-61
2023/12/20 07:23:28;;;;;;;;;;;;;;;;;;5044486;28;5102;-61
2023/12/20 07:25:53;;;;;;;;;;;;;;;;;;5039460;28;5445;-62
2023/12/20 07:28:18;;;;;;;;;;;;;;;;;;5046763;28;3300;-61
2023/12/20 07:30:44;;;;;;;;;;;;;;;;;;5043278;28;5116;-62
2023/12/20 07:33:09;;;;;;;;;;;;;;;;;;5043991;28;5134;-62
2023/12/20 07:35:34;;;;;;;;;;;;;;;;;;5042240;28;5244;-62
2023/12/20 07:38:00;;;;;;;;;;;;;;;;;;5038461;28;5003;-61
2023/12/20 07:40:25;;;;;;;;;;;;;;;;;;5047495;28;5098;-61
2023/12/20 07:42:51;;;;;;;;;;;;;;;;;;5046087;28;3288;-60
2023/12/20 07:45:16;;;;;;;;;;;;;;;;;;5044788;28;5231;-63
2023/12/20 07:47:41;;;;;;;;;;;;;;;;;;5043061;28;5165;-61
2023/12/20 07:50:06;;;;;;;;;;;;;;;;;;5041677;28;5152;-62
2023/12/20 07:52:32;;;;;;;;;;;;;;;;;;5040828;28;5128;-62
2023/12/20 07:54:57;;;;;;;;;;;;;;;;;;5045454;28;1198;-61
2023/12/20 07:57:23;;;;;;;;;;;;;;;;;;5044500;28;5027;-62
2023/12/20 07:59:48;;;;;;;;;;;;;;;;;;5042288;28;5507;-61
2023/12/20 08:02:13;;;;;;;;;;;;;;;;;;5036864;28;5039;-62
2023/12/20 08:04:39;;;;;;;;;;;;;;;;;;5037328;28;5051;-61
2023/12/20 08:07:04;;;;;;;;;;;;;;;;;;5048225;28;1135;-62
2023/12/20 08:09:29;;;;;;;;;;;;;;;;;;5040975;28;4975;-61
2023/12/20 08:11:55;;;;;;;;;;;;;;;;;;5039443;28;5488;-62
2023/12/20 08:14:20;;;;;;;;;;;;;;;;;;5035605;28;5126;-61
2023/12/20 08:16:45;;;;;;;;;;;;;;;;;;5043852;28;4976;-61
2023/12/20 08:19:11;;;;;;;;;;;;;;;;;;5037887;28;3474;-61
2023/12/20 08:21:36;;;;;;;;;;;;;;;;;;5045302;28;4980;-63
2023/12/20 08:24:01;;;;;;;;;;;;;;;;;;5043155;28;5007;-62
2023/12/20 08:26:26;;;;;;;;;;;;;;;;;;5039307;28;4709;-61
2023/12/20 08:28:52;;;;;;;;;;;;;;;;;;5044358;28;4941;-61
2023/12/20 08:31:17;;;;;;;;;;;;;;;;;;5043194;28;3551;-63
2023/12/20 08:33:43;;;;;;;;;;;;;;;;;;5044094;28;5044;-62
2023/12/20 08:36:08;;;;;;;;;;;;;;;;;;5043908;28;5107;-62
2023/12/20 08:38:34;;;;;;;;;;;;;;;;;;5047062;28;4961;-61
2023/12/20 08:40:59;;;;;;;;;;;;;;;;;;5045148;28;5053;-62
2023/12/20 08:43:24;;;;;;;;;;;;;;;;;;5047369;28;5194;-61
2023/12/20 08:45:50;;;;;;;;;;;;;;;;;;5044844;28;3343;-62
2023/12/20 08:48:15;;;;;;;;;;;;;;;;;;5043171;28;4981;-62
2023/12/20 08:50:40;;;;;;;;;;;;;;;;;;5047199;28;4649;-61
2023/12/20 08:53:05;;;;;;;;;;;;;;;;;;5038911;28;4761;-61
2023/12/20 08:55:31;;;;;;;;;;;;;;;;;;5046046;28;4507;-62
2023/12/20 08:57:56;;;;;;;;;;;;;;;;;;5046850;28;1677;-62
2023/12/20 09:00:24;;;;;;;;;;;;;;;;;;5041856;28;4879;-62
2023/12/20 09:02:49;;;;;;;;;;;;;;;;;;5039029;28;4762;-61
2023/12/20 09:05:15;;;;;;;;;;;;;;;;;;5039309;28;4696;-62
2023/12/20 09:07:40;;;;;;;;;;;;;;;;;;5046011;28;5022;-61
2023/12/20 09:10:05;;;;;;;;;;;;;;;;;;5048024;28;1254;-61
2023/12/20 09:12:31;;;;;;;;;;;;;;;;;;5046851;28;4727;-62
2023/12/20 09:14:56;;;;;;;;;;;;;;;;;;5045083;28;5069;-62
2023/12/20 09:17:22;;;;;;;;;;;;;;;;;;5047068;28;5039;-63
2023/12/20 09:19:48;;;;;;;;;;;;;;;;;;5047033;28;5071;-62
2023/12/20 09:22:13;;;;;;;;;;;;;;;;;;5045491;28;1331;-62
2023/12/20 09:24:38;;;;;;;;;;;;;;;;;;5042908;28;5060;-62
2023/12/20 09:27:05;;;;;;;;;;;;;;;;;;5042813;28;4566;-60
2023/12/20 09:29:31;;;;;;;;;;;;;;;;;;5041806;28;5153;-62
2023/12/20 09:31:57;;;;;;;;;;;;;;;;;;5045195;28;4723;-61
2023/12/20 09:34:22;;;;;;;;;;;;;;;;;;5046492;28;5143;-60
2023/12/20 09:36:48;;;;;;;;;;;;;;;;;;5037182;28;3424;-61
2023/12/20 09:39:13;;;;;;;;;;;;;;;;;;5039360;28;4575;-60
2023/12/20 09:41:40;;;;;;;;;;;;;;;;;;5043203;28;5234;-60
2023/12/20 09:44:05;;;;;;;;;;;;;;;;;;5040929;28;4570;-61
2023/12/20 09:46:31;;;;;;;;;;;;;;;;;;5051771;28;5157;-60
2023/12/20 09:48:57;;;;;;;;;;;;;;;;;;5038820;28;3311;-61
2023/12/20 09:51:22;;;;;;;;;;;;;;;;;;5034188;28;5078;-62
2023/12/20 09:53:48;;;;;;;;;;;;;;;;;;5038552;28;5141;-60
2023/12/20 09:56:13;;;;;;;;;;;;;;;;;;5037209;28;4813;-60
2023/12/20 09:58:39;;;;;;;;;;;;;;;;;;5036966;28;5123;-61
2023/12/20 10:01:04;;;;;;;;;;;;;;;;;;5037038;28;3583;-60
2023/12/20 10:03:29;;;;;;;;;;;;;;;;;;5038834;28;5051;-63
2023/12/20 10:05:56;;;;;;;;;;;;;;;;;;5033826;28;4745;-62
2023/12/20 10:08:22;;;;;;;;;;;;;;;;;;5037907;28;5389;-61
2023/12/20 10:10:47;;;;;;;;;;;;;;;;;;5033941;28;5097;-60
2023/12/20 10:13:13;;;;;;;;;;;;;;;;;;5035503;28;3342;-61
2023/12/20 10:15:38;;;;;;;;;;;;;;;;;;5038807;28;5244;-59
2023/12/20 10:18:04;;;;;;;;;;;;;;;;;;5035808;28;5231;-62
2023/12/20 10:20:29;;;;;;;;;;;;;;;;;;5037991;28;5062;-60
2023/12/20 10:22:55;;;;;;;;;;;;;;;;;;5044609;28;4846;-59
2023/12/20 10:25:21;;;;;;;;;;;;;;;;;;5038408;28;3165;-61
2023/12/20 10:27:46;;;;;;;;;;;;;;;;;;5037481;28;5001;-62
2023/12/20 10:30:11;;;;;;;;;;;;;;;;;;5043503;28;5170;-60
2023/12/20 10:32:37;;;;;;;;;;;;;;;;;;5043441;28;5307;-61
2023/12/20 10:35:02;;;;;;;;;;;;;;;;;;5043982;28;4941;-60
2023/12/20 10:37:27;;;;;;;;;;;;;;;;;;5038554;28;4622;-60
2023/12/20 10:39:56;;;;;;;;;;;;;;;;;;5044555;28;3167;-60
2023/12/20 10:42:30;;;;;;;;;;;;;;;;;;5040603;28;5345;-61
2023/12/20 10:44:55;;;;;;;;;;;;;;;;;;5036472;28;4530;-62
2023/12/20 10:47:20;;;;;;;;;;;;;;;;;;5039803;28;5132;-59
2023/12/20 10:49:46;;;;;;;;;;;;;;;;;;5041195;28;5092;-60
2023/12/20 10:52:11;;;;;;;;;;;;;;;;;;5038370;28;3643;-60
2023/12/20 10:54:36;;;;;;;;;;;;;;;;;;5043303;28;4523;-63
2023/12/20 10:57:02;;;;;;;;;;;;;;;;;;5041592;28;4998;-63
2023/12/20 10:59:28;;;;;;;;;;;;;;;;;;5044321;28;5341;-64
2023/12/20 11:01:53;;;;;;;;;;;;;;;;;;5038618;28;5064;-64
2023/12/20 11:04:22;;;;;;;;;;;;;;;;;;5044347;28;2418;-64
2023/12/20 11:06:48;;;;;;;;;;;;;;;;;;5042935;28;5123;-64
2023/12/20 11:09:20;;;;;;;;;;;;;;;;;;5040536;28;5211;-64
2023/12/20 11:12:04;;;;;;;;;;;;;;;;;;5047519;28;5259;-64
2023/12/20 11:14:42;;;;;;;;;;;;;;;;;;5047707;28;5395;-63
2023/12/20 11:17:08;;;;;;;;;;;;;;;;;;5048837;28;4443;-64
2023/12/20 11:19:35;;;;;;;;;;;;;;;;;;5047783;28;4721;-63
2023/12/20 11:22:01;;;;;;;;;;;;;;;;;;5048439;28;3446;-63
2023/12/20 11:24:26;;;;;;;;;;;;;;;;;;5048510;28;5146;-64
2023/12/20 11:26:54;;;;;;;;;;;;;;;;;;5046538;28;5160;-64
2023/12/20 11:29:29;;;;;;;;;;;;;;;;;;5040731;28;4500;-64
2023/12/20 11:31:55;;;;;;;;;;;;;;;;;;5044268;28;5128;-63
2023/12/20 11:34:20;;;;;;;;;;;;;;;;;;5044440;28;5126;-65
2023/12/20 11:36:45;;;;;;;;;;;;;;;;;;5045823;28;5020;-63
2023/12/20 11:39:11;;;;;;;;;;;;;;;;;;5048804;28;5075;-64
2023/12/20 11:41:37;;;;;;;;;;;;;;;;;;5045022;28;4728;-64
2023/12/20 11:44:04;;;;;;;;;;;;;;;;;;5047283;28;5025;-64
2023/12/20 11:46:29;;;;;;;;;;;;;;;;;;5047889;28;5173;-64
2023/12/20 11:48:54;;;;;;;;;;;;;;;;;;5047675;28;1093;-64
2023/12/20 11:51:20;;;;;;;;;;;;;;;;;;5038772;28;5033;-64
2023/12/20 11:53:45;;;;;;;;;;;;;;;;;;5039525;28;5165;-64
2023/12/20 11:56:10;;;;;;;;;;;;;;;;;;5057445;28;5193;-64
2023/12/20 11:58:36;;;;;;;;;;;;;;;;;;5043085;28;6222;-64
2023/12/20 12:01:02;;;;;;;;;;;;;;;;;;5045712;28;3578;-64
2023/12/20 12:03:27;;;;;;;;;;;;;;;;;;5037617;28;5146;-64
2023/12/20 12:05:53;;;;;;;;;;;;;;;;;;5042872;28;5121;-64
2023/12/20 12:08:18;;;;;;;;;;;;;;;;;;5048087;28;5020;-63
2023/12/20 12:10:44;;;;;;;;;;;;;;;;;;5046487;28;4549;-65
2023/12/20 12:13:09;;;;;;;;;;;;;;;;;;5047868;28;3473;-64
2023/12/20 12:15:35;;;;;;;;;;;;;;;;;;5038022;28;5052;-64
2023/12/20 12:18:00;;;;;;;;;;;;;;;;;;5046434;28;4516;-64
2023/12/20 12:20:25;;;;;;;;;;;;;;;;;;5045132;28;4600;-64
2023/12/20 12:22:57;;;;;;;;;;;;;;;;;;5048073;28;4986;-64
2023/12/20 12:25:23;;;;;;;;;;;;;;;;;;5041894;28;5227;-64
2023/12/20 12:27:48;;;;;;;;;;;;;;;;;;5045019;28;1709;-64
2023/12/20 12:30:15;;;;;;;;;;;;;;;;;;5042016;28;5170;-64
2023/12/20 12:32:41;;;;;;;;;;;;;;;;;;5045550;28;5134;-63
2023/12/20 12:35:06;;;;;;;;;;;;;;;;;;5045956;28;5127;-64
2023/12/20 12:37:38;;;;;;;;;;;;;;;;;;5046215;28;5068;-65
2023/12/20 12:40:05;;;;;;;;;;;;;;;;;;5046691;28;1583;-64
2023/12/20 12:42:30;;;;;;;;;;;;;;;;;;5041858;28;5024;-64
2023/12/20 12:44:56;;;;;;;;;;;;;;;;;;5044749;28;6017;-64
2023/12/20 12:47:21;;;;;;;;;;;;;;;;;;5047430;28;5088;-64
2023/12/20 12:49:48;;;;;;;;;;;;;;;;;;5046011;28;5187;-64
2023/12/20 12:52:13;;;;;;;;;;;;;;;;;;5044404;28;3597;-63
2023/12/20 12:54:39;;;;;;;;;;;;;;;;;;5042609;28;5063;-64
2023/12/20 12:57:04;;;;;;;;;;;;;;;;;;5040272;28;5096;-63
2023/12/20 12:59:29;;;;;;;;;;;;;;;;;;5046160;28;5051;-63
2023/12/20 13:01:54;;;;;;;;;;;;;;;;;;5040814;28;5052;-64
2023/12/20 13:04:20;;;;;;;;;;;;;;;;;;5047796;28;1148;-64
2023/12/20 13:06:46;;;;;;;;;;;;;;;;;;5041159;28;4965;-63
2023/12/20 13:09:12;;;;;;;;;;;;;;;;;;5045054;28;5113;-64
2023/12/20 13:11:37;;;;;;;;;;;;;;;;;;5042692;28;4533;-63
2023/12/20 13:14:03;;;;;;;;;;;;;;;;;;5043438;28;4708;-63
2023/12/20 13:16:28;;;;;;;;;;;;;;;;;;5043928;28;5040;-64
2023/12/20 13:18:54;;;;;;;;;;;;;;;;;;5047618;28;1111;-64
2023/12/20 13:21:19;;;;;;;;;;;;;;;;;;5045892;28;4602;-64
2023/12/20 13:23:44;;;;;;;;;;;;;;;;;;5042361;28;5107;-63
2023/12/20 13:26:10;;;;;;;;;;;;;;;;;;5029370;28;5087;-64
2023/12/20 13:28:35;;;;;;;;;;;;;;;;;;5037691;28;5901;-64
2023/12/20 13:31:00;;;;;;;;;;;;;;;;;;5041487;28;3407;-64
2023/12/20 13:33:26;;;;;;;;;;;;;;;;;;5039630;28;5024;-65
2023/12/20 13:35:51;;;;;;;;;;;;;;;;;;5038888;28;5238;-64
2023/12/20 13:38:16;;;;;;;;;;;;;;;;;;5041702;28;5155;-65
2023/12/20 13:40:42;;;;;;;;;;;;;;;;;;5040532;28;5228;-65
2023/12/20 13:43:08;;;;;;;;;;;;;;;;;;5042561;28;3383;-64
2023/12/20 13:45:33;;;;;;;;;;;;;;;;;;5046174;28;4717;-64
2023/12/20 13:47:58;;;;;;;;;;;;;;;;;;5041659;28;4720;-65
2023/12/20 13:50:24;;;;;;;;;;;;;;;;;;5037898;28;5039;-65
2023/12/20 13:52:49;;;;;;;;;;;;;;;;;;5035602;28;5176;-64
2023/12/20 13:55:14;;;;;;;;;;;;;;;;;;5046847;28;1325;-65
2023/12/20 13:57:41;;;;;;;;;;;;;;;;;;5041490;28;4998;-65
2023/12/20 14:00:13;;;;;;;;;;;;;;;;;;5038173;28;5963;-65
2023/12/20 14:02:38;;;;;;;;;;;;;;;;;;5043875;28;4575;-65
2023/12/20 14:05:03;;;;;;;;;;;;;;;;;;5050102;28;5276;-64
2023/12/20 14:07:29;;;;;;;;;;;;;;;;;;5045087;28;4721;-64
2023/12/20 14:09:54;;;;;;;;;;;;;;;;;;5050554;28;1104;-64
2023/12/20 14:12:20;;;;;;;;;;;;;;;;;;5049064;28;4968;-64
2023/12/20 14:14:45;;;;;;;;;;;;;;;;;;5049347;28;5049;-64
2023/12/20 14:17:11;;;;;;;;;;;;;;;;;;5047602;28;4958;-64
2023/12/20 14:19:36;;;;;;;;;;;;;;;;;;5049334;28;4937;-64
2023/12/20 14:22:03;;;;;;;;;;;;;;;;;;5051128;28;1225;-65
2023/12/20 14:24:28;;;;;;;;;;;;;;;;;;5045705;28;4624;-65
2023/12/20 14:26:53;;;;;;;;;;;;;;;;;;5044667;28;5048;-65
2023/12/20 14:29:19;;;;;;;;;;;;;;;;;;5047248;28;4775;-65
2023/12/20 14:31:44;;;;;;;;;;;;;;;;;;5049041;28;4631;-66
2023/12/20 14:34:10;;;;;;;;;;;;;;;;;;5048695;28;4913;-65
2023/12/20 14:36:35;;;;;;;;;;;;;;;;;;5043629;28;5084;-64
2023/12/20 14:39:02;;;;;;;;;;;;;;;;;;5043054;28;5042;-65
2023/12/20 14:41:28;;;;;;;;;;;;;;;;;;5039911;28;5193;-63
2023/12/20 14:43:53;;;;;;;;;;;;;;;;;;5041957;28;4758;-64
2023/12/20 14:46:18;;;;;;;;;;;;;;;;;;5043741;28;3578;-64
2023/12/20 14:48:43;;;;;;;;;;;;;;;;;;5042023;28;4471;-63
2023/12/20 14:51:09;;;;;;;;;;;;;;;;;;5046762;28;4461;-64
2023/12/20 14:53:37;;;;;;;;;;;;;;;;;;5041658;28;4692;-64
2023/12/20 14:56:04;;;;;;;;;;;;;;;;;;5044838;28;4987;-64
2023/12/20 14:58:31;;;;;;;;;;;;;;;;;;5037069;28;5847;-64
2023/12/20 15:00:56;;;;;;;;;;;;;;;;;;5040018;28;3438;-64
2023/12/20 15:03:21;;;;;;;;;;;;;;;;;;5042448;28;5014;-65
2023/12/20 15:05:47;;;;;;;;;;;;;;;;;;5038332;28;4685;-64
2023/12/20 15:08:13;;;;;;;;;;;;;;;;;;5047158;28;4859;-64
2023/12/20 15:10:38;;;;;;;;;;;;;;;;;;5042800;28;5234;-64
2023/12/20 15:13:03;;;;;;;;;;;;;;;;;;5049536;28;1210;-64
2023/12/20 15:15:29;;;;;;;;;;;;;;;;;;5043968;28;5891;-65
2023/12/20 15:17:54;;;;;;;;;;;;;;;;;;5045586;28;4912;-64
2023/12/20 15:20:20;;;;;;;;;;;;;;;;;;5048246;28;5090;-63
2023/12/20 15:22:45;;;;;;;;;;;;;;;;;;5047654;28;4566;-64
2023/12/20 15:25:11;;;;;;;;;;;;;;;;;;5044074;28;3764;-64
2023/12/20 15:27:38;;;;;;;;;;;;;;;;;;5043228;28;4736;-64
2023/12/20 15:30:04;;;;;;;;;;;;;;;;;;5047400;28;5091;-64
2023/12/20 15:32:29;;;;;;;;;;;;;;;;;;5042934;28;5075;-63
2023/12/20 15:34:54;;;;;;;;;;;;;;;;;;5040142;28;5100;-63
2023/12/20 15:37:21;;;;;;;;;;;;;;;;;;5049889;28;1132;-64
2023/12/20 15:39:46;;;;;;;;;;;;;;;;;;5046254;28;4601;-64
2023/12/20 15:42:12;;;;;;;;;;;;;;;;;;5041448;28;5042;-64
2023/12/20 15:44:37;;;;;;;;;;;;;;;;;;5046440;28;5013;-65
2023/12/20 15:47:02;;;;;;;;;;;;;;;;;;5038961;28;4932;-63
2023/12/20 15:49:28;;;;;;;;;;;;;;;;;;5041751;28;5129;-64
2023/12/20 15:51:54;;;;;;;;;;;;;;;;;;5045097;28;3433;-64
2023/12/20 15:54:19;;;;;;;;;;;;;;;;;;5044841;28;5048;-63
2023/12/20 15:56:47;;;;;;;;;;;;;;;;;;5043953;28;4813;-64
2023/12/20 15:59:12;;;;;;;;;;;;;;;;;;5041529;28;5254;-64
2023/12/20 16:01:38;;;;;;;;;;;;;;;;;;5030128;28;4691;-63
2023/12/20 16:04:03;;;;;;;;;;;;;;;;;;5047422;28;1967;-63
2023/12/20 16:06:28;;;;;;;;;;;;;;;;;;5048236;28;5295;-63
2023/12/20 16:08:54;;;;;;;;;;;;;;;;;;5046816;28;5162;-65
2023/12/20 16:11:19;;;;;;;;;;;;;;;;;;5043384;28;5084;-63
2023/12/20 16:13:45;;;;;;;;;;;;;;;;;;5044028;28;5118;-64
2023/12/20 16:16:10;;;;;;;;;;;;;;;;;;5033811;28;3619;-61
2023/12/20 16:18:35;;;;;;;;;;;;;;;;;;5039476;28;5041;-66
2023/12/20 16:21:01;;;;;;;;;;;;;;;;;;5046207;28;5186;-69
2023/12/20 16:23:26;;;;;;;;;;;;;;;;;;5020025;28;5215;-67
2023/12/20 16:25:52;;;;;;;;;;;;;;;;;;5042028;28;4952;-69
2023/12/20 16:28:17;;;;;;;;;;;;;;;;;;5044753;28;3378;-66
2023/12/20 16:30:42;;;;;;;;;;;;;;;;;;5040855;28;4500;-64
2023/12/20 16:33:08;;;;;;;;;;;;;;;;;;5034172;28;5142;-62
2023/12/20 16:35:33;;;;;;;;;;;;;;;;;;5041271;28;5023;-64
2023/12/20 16:37:58;;;;;;;;;;;;;;;;;;5038416;28;4730;-69
2023/12/20 16:40:24;;;;;;;;;;;;;;;;;;5041495;28;4930;-65
2023/12/20 16:42:52;;;;;;;;;;;;;;;;;;5045224;28;3668;-61
2023/12/20 16:45:17;;;;;;;;;;;;;;;;;;5046381;28;5177;-64
2023/12/20 16:47:43;;;;;;;;;;;;;;;;;;5045660;28;5095;-67
2023/12/20 16:50:09;;;;;;;;;;;;;;;;;;5043892;28;5140;-63
2023/12/20 16:52:34;;;;;;;;;;;;;;;;;;5048063;28;4965;-61